Time;durP1;ratioP1;P1;durP2;ratioP2;P2;SDS_P1;SDS_P2;PMS_P1;PMS_P2;Temp;Humidity;BMP_temperature;BMP_pressure;BME280_temperature;BME280_humidity;BME280_pressure;Samples;Min_cycle;Max_cycle;Signal;HPM_P1;HPM_P2
2021/12/26 00:01:18;;;;;;;;;;;3.00;99.90;;;;;;5032808;28;19920;-75
2021/12/26 00:03:49;;;;;;;;;;;3.00;99.90;;;;;;5017981;28;20300;-75
2021/12/26 00:06:18;;;;;;;;;;;3.00;99.90;;;;;;5034011;28;20041;-75
2021/12/26 00:08:46;;;;;;;;;;;2.90;99.90;;;;;;5034067;28;19927;-75
2021/12/26 00:11:18;;;;;;;;;;;3.00;99.90;;;;;;5018448;28;19924;-75
2021/12/26 00:13:50;;;;;;;;;;;2.90;99.90;;;;;;5017611;28;19999;-76
2021/12/26 00:16:17;;;;;;;;;;;2.90;99.90;;;;;;5032894;28;20307;-75
2021/12/26 00:18:49;;;;;;;;;;;2.90;99.90;;;;;;5033060;28;19920;-75
2021/12/26 00:21:22;;;;;;;;;;;2.90;99.90;;;;;;5033040;28;19920;-75
2021/12/26 00:23:55;;;;;;;;;;;2.90;99.90;;;;;;5033715;28;19999;-75
2021/12/26 00:26:22;;;;;;;;;;;3.00;99.90;;;;;;5033797;28;20382;-76
2021/12/26 00:28:48;;;;;;;;;;;2.90;99.90;;;;;;5033297;28;19927;-76
2021/12/26 00:31:16;;;;;;;;;;;2.90;99.90;;;;;;5033992;28;19951;-76
2021/12/26 00:33:50;;;;;;;;;;;2.90;99.90;;;;;;5032447;28;19924;-75
2021/12/26 00:36:23;;;;;;;;;;;2.80;99.90;;;;;;5020425;28;19974;-75
2021/12/26 00:38:50;;;;;;;;;;;2.80;99.90;;;;;;5033644;28;20367;-75
2021/12/26 00:41:18;;;;;;;;;;;2.90;99.90;;;;;;5033273;28;20454;-76
2021/12/26 00:43:45;;;;;;;;;;;2.90;99.90;;;;;;5033653;28;19927;-75
2021/12/26 00:46:12;;;;;;;;;;;2.90;99.90;;;;;;5033991;28;20043;-75
2021/12/26 00:48:44;;;;;;;;;;;2.90;99.90;;;;;;5017666;28;19924;-75
2021/12/26 00:51:11;;;;;;;;;;;2.90;99.90;;;;;;5033858;28;19928;-75
2021/12/26 00:53:42;;;;;;;;;;;3.00;99.90;;;;;;5017624;28;20011;-75
2021/12/26 00:56:09;;;;;;;;;;;3.00;99.90;;;;;;5033293;28;19951;-75
2021/12/26 00:58:36;;;;;;;;;;;3.00;99.90;;;;;;5038259;28;20011;-75
2021/12/26 01:01:09;;;;;;;;;;;3.00;99.90;;;;;;5039903;28;19924;-75
2021/12/26 01:03:42;;;;;;;;;;;2.90;99.90;;;;;;5039769;28;20418;-75
2021/12/26 01:06:14;;;;;;;;;;;3.00;99.90;;;;;;5039600;28;19920;-75
2021/12/26 01:08:43;;;;;;;;;;;3.00;99.90;;;;;;5023731;28;20373;-75
2021/12/26 01:11:22;;;;;;;;;;;3.00;99.90;;;;;;5039574;28;19920;-75
2021/12/26 01:13:51;;;;;;;;;;;3.00;99.90;;;;;;5023145;28;19921;-75
2021/12/26 01:16:47;;;;;;;;;;;3.00;99.90;;;;;;5057569;28;19931;-75
2021/12/26 01:19:26;;;;;;;;;;;3.00;99.90;;;;;;5024042;28;19982;-75
2021/12/26 01:21:53;;;;;;;;;;;3.00;99.90;;;;;;5040001;28;19945;-75
2021/12/26 01:24:25;;;;;;;;;;;3.00;99.90;;;;;;5039217;28;19986;-75
2021/12/26 01:26:56;;;;;;;;;;;3.00;99.90;;;;;;5039780;28;20385;-75
2021/12/26 01:29:30;;;;;;;;;;;3.00;99.90;;;;;;5039679;28;20384;-75
2021/12/26 01:31:57;;;;;;;;;;;3.00;99.90;;;;;;5039464;28;19925;-75
2021/12/26 01:34:50;;;;;;;;;;;3.00;99.90;;;;;;5028233;28;19920;-75
2021/12/26 01:37:37;;;;;;;;;;;3.00;99.90;;;;;;5032375;28;19927;-75
2021/12/26 01:40:27;;;;;;;;;;;3.00;99.90;;;;;;5039592;28;19924;-75
2021/12/26 01:43:03;;;;;;;;;;;3.00;99.90;;;;;;5024081;28;19920;-75
2021/12/26 01:45:52;;;;;;;;;;;3.00;99.90;;;;;;5039761;28;19920;-75
2021/12/26 01:48:19;;;;;;;;;;;3.00;99.90;;;;;;5057904;28;20377;-75
2021/12/26 01:50:52;;;;;;;;;;;3.00;99.90;;;;;;5039459;28;19921;-75
2021/12/26 01:53:22;;;;;;;;;;;3.00;99.90;;;;;;5022616;28;19920;-75
2021/12/26 01:55:49;;;;;;;;;;;3.00;99.90;;;;;;5039671;28;19921;-75
2021/12/26 01:58:18;;;;;;;;;;;3.00;99.90;;;;;;5039425;28;19943;-75
2021/12/26 02:00:53;;;;;;;;;;;3.00;99.90;;;;;;5023570;28;19924;-75
2021/12/26 02:03:25;;;;;;;;;;;3.00;99.90;;;;;;5038920;28;19955;-75
2021/12/26 02:05:58;;;;;;;;;;;3.00;99.90;;;;;;5038841;28;20430;-75
2021/12/26 02:08:38;;;;;;;;;;;3.00;99.90;;;;;;5037915;28;19931;-75
2021/12/26 02:11:10;;;;;;;;;;;3.00;99.90;;;;;;5018769;28;20454;-75
2021/12/26 02:13:39;;;;;;;;;;;3.00;99.90;;;;;;5034575;28;20395;-75
2021/12/26 02:16:12;;;;;;;;;;;3.00;99.90;;;;;;5036012;28;19921;-75
2021/12/26 02:18:40;;;;;;;;;;;2.90;99.90;;;;;;5035754;28;19921;-75
2021/12/26 02:24:11;;;;;;;;;;;2.90;99.90;;;;;;5028225;28;19983;-75
2021/12/26 02:29:33;;;;;;;;;;;2.90;99.90;;;;;;5035561;28;19935;-75
2021/12/26 02:32:00;;;;;;;;;;;2.90;99.90;;;;;;5019085;28;19944;-75
2021/12/26 02:34:32;;;;;;;;;;;2.90;99.90;;;;;;5035841;28;20682;-75
2021/12/26 02:36:59;;;;;;;;;;;2.90;99.90;;;;;;5035046;28;19924;-75
2021/12/26 02:39:33;;;;;;;;;;;2.80;99.90;;;;;;5035186;28;19921;-75
2021/12/26 02:42:00;;;;;;;;;;;2.80;99.90;;;;;;5028883;28;20701;-75
2021/12/26 02:44:33;;;;;;;;;;;2.90;99.90;;;;;;5052813;28;20380;-75
2021/12/26 02:47:05;;;;;;;;;;;2.80;99.90;;;;;;5035683;28;20015;-75
2021/12/26 02:49:31;;;;;;;;;;;2.90;99.90;;;;;;5035621;28;20424;-75
2021/12/26 02:51:58;;;;;;;;;;;2.90;99.90;;;;;;5035660;28;20285;-75
2021/12/26 02:54:30;;;;;;;;;;;2.90;99.90;;;;;;5034548;28;19981;-75
2021/12/26 02:56:56;;;;;;;;;;;2.90;99.90;;;;;;5035362;28;19928;-75
2021/12/26 02:59:23;;;;;;;;;;;2.90;99.90;;;;;;5018727;28;19920;-75
2021/12/26 03:01:55;;;;;;;;;;;2.90;99.90;;;;;;5015871;28;19971;-75
2021/12/26 03:04:22;;;;;;;;;;;2.90;99.90;;;;;;5003974;28;19920;-75
2021/12/26 03:07:02;;;;;;;;;;;2.90;99.90;;;;;;5035641;28;19964;-75
2021/12/26 03:09:43;;;;;;;;;;;2.90;99.90;;;;;;5035269;28;19921;-75
2021/12/26 03:12:15;;;;;;;;;;;2.90;99.90;;;;;;5019640;28;19920;-75
2021/12/26 03:14:47;;;;;;;;;;;2.90;99.90;;;;;;5019338;28;19921;-75
2021/12/26 03:17:19;;;;;;;;;;;2.90;99.90;;;;;;5035195;28;20448;-75
2021/12/26 03:19:46;;;;;;;;;;;2.90;99.90;;;;;;5034982;28;19920;-75
2021/12/26 03:22:18;;;;;;;;;;;2.90;99.90;;;;;;5035277;28;19924;-76
2021/12/26 03:24:50;;;;;;;;;;;2.90;99.90;;;;;;5019267;28;19920;-75
2021/12/26 03:27:22;;;;;;;;;;;2.90;99.90;;;;;;5035030;28;19921;-75
2021/12/26 03:29:53;;;;;;;;;;;2.90;99.90;;;;;;5035657;28;20023;-75
2021/12/26 03:32:20;;;;;;;;;;;2.90;99.90;;;;;;5034592;28;19920;-76
2021/12/26 03:34:52;;;;;;;;;;;2.90;99.90;;;;;;5052823;28;20383;-75
2021/12/26 03:37:19;;;;;;;;;;;3.00;99.90;;;;;;5052406;28;19959;-75
2021/12/26 03:39:45;;;;;;;;;;;3.00;99.90;;;;;;5034498;28;19967;-75
2021/12/26 03:42:21;;;;;;;;;;;3.00;99.90;;;;;;5022212;28;20016;-75
2021/12/26 03:44:49;;;;;;;;;;;3.00;99.90;;;;;;5034577;28;19920;-75
2021/12/26 03:47:20;;;;;;;;;;;3.00;99.90;;;;;;4999284;28;20315;-75
2021/12/26 03:49:49;;;;;;;;;;;3.00;99.90;;;;;;5023251;28;19927;-75
2021/12/26 03:52:22;;;;;;;;;;;3.00;99.90;;;;;;5018658;28;20436;-75
2021/12/26 03:54:55;;;;;;;;;;;3.00;99.90;;;;;;5034335;28;19921;-75
2021/12/26 03:57:27;;;;;;;;;;;3.00;99.90;;;;;;5018432;28;19963;-75
2021/12/26 03:59:59;;;;;;;;;;;3.00;99.90;;;;;;5034275;28;19920;-76
2021/12/26 04:02:25;;;;;;;;;;;3.00;99.90;;;;;;5033377;28;19920;-76
2021/12/26 04:04:57;;;;;;;;;;;3.00;99.90;;;;;;5034267;28;19924;-75
2021/12/26 04:07:29;;;;;;;;;;;3.00;99.90;;;;;;5034025;28;20391;-76
2021/12/26 04:09:55;;;;;;;;;;;3.00;99.90;;;;;;5034081;28;20353;-75
2021/12/26 04:12:34;;;;;;;;;;;3.00;99.90;;;;;;5015983;28;19937;-75
2021/12/26 04:15:10;;;;;;;;;;;3.10;99.90;;;;;;5031052;28;19921;-76
2021/12/26 04:17:42;;;;;;;;;;;3.00;99.90;;;;;;5014658;28;19928;-76
2021/12/26 04:20:10;;;;;;;;;;;3.00;99.90;;;;;;5025820;28;19929;-75
2021/12/26 04:22:36;;;;;;;;;;;3.00;99.90;;;;;;5051020;28;20003;-75
2021/12/26 04:25:04;;;;;;;;;;;3.00;99.90;;;;;;5051485;28;19927;-75
2021/12/26 04:27:36;;;;;;;;;;;3.00;99.90;;;;;;5033577;28;19921;-75
2021/12/26 04:30:07;;;;;;;;;;;3.00;99.90;;;;;;5033712;28;19963;-75
2021/12/26 04:32:34;;;;;;;;;;;3.00;99.90;;;;;;5016724;28;19920;-75
2021/12/26 04:35:01;;;;;;;;;;;3.00;99.90;;;;;;5017668;28;20404;-75
2021/12/26 04:37:34;;;;;;;;;;;3.00;99.90;;;;;;5033610;28;19988;-75
2021/12/26 04:40:07;;;;;;;;;;;2.90;99.90;;;;;;5033473;28;19921;-76
2021/12/26 04:43:11;;;;;;;;;;;2.90;99.90;;;;;;5006121;28;19964;-75
2021/12/26 04:45:45;;;;;;;;;;;3.00;99.90;;;;;;5033500;28;19925;-76
2021/12/26 04:48:32;;;;;;;;;;;2.90;99.90;;;;;;5036480;28;20307;-75
2021/12/26 04:50:58;;;;;;;;;;;3.00;99.90;;;;;;5033285;28;20282;-75
2021/12/26 04:53:25;;;;;;;;;;;3.00;99.90;;;;;;5032909;28;19966;-75
2021/12/26 04:55:57;;;;;;;;;;;3.00;99.90;;;;;;5033248;28;19920;-76
2021/12/26 04:58:24;;;;;;;;;;;3.00;99.90;;;;;;5016805;28;19951;-75
2021/12/26 05:00:51;;;;;;;;;;;3.00;99.90;;;;;;5032900;28;19966;-75
2021/12/26 05:03:18;;;;;;;;;;;3.00;99.90;;;;;;5032931;28;20415;-75
2021/12/26 05:05:50;;;;;;;;;;;3.00;99.90;;;;;;5050957;28;19920;-75
2021/12/26 05:08:17;;;;;;;;;;;3.00;99.90;;;;;;5033490;28;19986;-75
2021/12/26 05:10:49;;;;;;;;;;;3.00;99.90;;;;;;5017646;28;20023;-75
2021/12/26 05:13:15;;;;;;;;;;;3.00;99.90;;;;;;5032932;28;19920;-75
2021/12/26 05:15:47;;;;;;;;;;;3.00;99.90;;;;;;5033393;28;19920;-75
2021/12/26 05:18:19;;;;;;;;;;;2.90;99.90;;;;;;5017746;28;20336;-75
2021/12/26 05:20:56;;;;;;;;;;;3.00;99.90;;;;;;5032778;28;19925;-75
2021/12/26 05:23:27;;;;;;;;;;;2.90;99.90;;;;;;5033942;28;19920;-75
2021/12/26 05:26:00;;;;;;;;;;;3.00;99.90;;;;;;5033061;28;19920;-75
2021/12/26 05:28:30;;;;;;;;;;;2.90;99.90;;;;;;5032744;28;20377;-75
2021/12/26 05:31:04;;;;;;;;;;;3.00;99.90;;;;;;5033054;28;19924;-75
2021/12/26 05:33:40;;;;;;;;;;;3.00;99.90;;;;;;5032306;28;19927;-75
2021/12/26 05:36:07;;;;;;;;;;;2.90;99.90;;;;;;5033143;28;20450;-75
2021/12/26 05:38:40;;;;;;;;;;;2.90;99.90;;;;;;5033072;28;19921;-75
2021/12/26 05:41:07;;;;;;;;;;;2.90;99.90;;;;;;5029810;28;19921;-76
2021/12/26 05:43:38;;;;;;;;;;;2.90;99.90;;;;;;5013701;28;20292;-76
2021/12/26 05:46:05;;;;;;;;;;;2.90;99.90;;;;;;5035819;28;20373;-75
2021/12/26 05:48:33;;;;;;;;;;;2.90;99.90;;;;;;5037130;28;19967;-75
2021/12/26 05:51:14;;;;;;;;;;;2.90;99.90;;;;;;5022417;28;19925;-76
2021/12/26 05:54:06;;;;;;;;;;;2.90;99.90;;;;;;5038607;28;19928;-76
2021/12/26 05:56:33;;;;;;;;;;;3.00;99.90;;;;;;5036083;28;19964;-76
2021/12/26 05:59:04;;;;;;;;;;;3.00;99.90;;;;;;5028042;28;19920;-76
2021/12/26 06:01:32;;;;;;;;;;;3.00;99.90;;;;;;5036575;28;19921;-75
2021/12/26 06:03:59;;;;;;;;;;;3.00;99.90;;;;;;5035937;28;19970;-76
2021/12/26 06:06:25;;;;;;;;;;;3.00;99.90;;;;;;5036676;28;19927;-76
2021/12/26 06:08:57;;;;;;;;;;;3.00;99.90;;;;;;5036359;28;19920;-76
2021/12/26 06:11:24;;;;;;;;;;;3.00;99.90;;;;;;5036368;28;19920;-76
2021/12/26 06:13:56;;;;;;;;;;;3.00;99.90;;;;;;5020163;28;19928;-76
2021/12/26 06:16:27;;;;;;;;;;;3.00;99.90;;;;;;5036461;28;20011;-75
2021/12/26 06:18:54;;;;;;;;;;;3.00;99.90;;;;;;5035982;28;19928;-75
2021/12/26 06:22:06;;;;;;;;;;;3.00;99.90;;;;;;4960823;28;20009;-75
2021/12/26 06:24:56;;;;;;;;;;;3.10;99.90;;;;;;4961409;28;20008;-75
2021/12/26 06:27:25;;;;;;;;;;;3.00;99.90;;;;;;5007121;28;20440;-75
2021/12/26 06:30:11;;;;;;;;;;;3.00;99.90;;;;;;5045563;28;20447;-75
2021/12/26 06:33:01;;;;;;;;;;;3.00;99.90;;;;;;5053705;28;19927;-75
2021/12/26 06:35:43;;;;;;;;;;;3.00;99.90;;;;;;5043679;28;19963;-76
2021/12/26 06:38:37;;;;;;;;;;;3.00;99.90;;;;;;5019840;28;19928;-75
2021/12/26 06:41:27;;;;;;;;;;;3.00;99.90;;;;;;5024381;28;19928;-75
2021/12/26 06:44:17;;;;;;;;;;;3.00;99.90;;;;;;5039388;28;19954;-75
2021/12/26 06:47:21;;;;;;;;;;;3.00;99.90;;;;;;5011715;28;20021;-75
2021/12/26 06:49:54;;;;;;;;;;;3.00;99.90;;;;;;5029800;28;20015;-75
2021/12/26 06:52:20;;;;;;;;;;;3.00;99.90;;;;;;5035718;28;19924;-75
2021/12/26 06:54:47;;;;;;;;;;;3.00;99.90;;;;;;5038646;28;19920;-76
2021/12/26 06:57:19;;;;;;;;;;;3.10;99.90;;;;;;5036403;28;19924;-76
2021/12/26 06:59:51;;;;;;;;;;;3.00;99.90;;;;;;5023247;28;20300;-75
2021/12/26 07:02:17;;;;;;;;;;;3.00;99.90;;;;;;5020625;28;19967;-75
2021/12/26 07:04:56;;;;;;;;;;;3.00;99.90;;;;;;5024857;28;19920;-75
2021/12/26 07:07:39;;;;;;;;;;;3.00;99.90;;;;;;5024490;28;19927;-75
2021/12/26 07:10:11;;;;;;;;;;;3.00;99.90;;;;;;5020162;28;20333;-75
2021/12/26 07:12:38;;;;;;;;;;;3.00;99.90;;;;;;5052951;28;19940;-75
2021/12/26 07:15:40;;;;;;;;;;;3.00;99.90;;;;;;5039248;28;19932;-74
2021/12/26 07:18:06;;;;;;;;;;;3.00;99.90;;;;;;5035540;28;19960;-75
2021/12/26 07:20:35;;;;;;;;;;;3.00;99.90;;;;;;5035564;28;19974;-75
2021/12/26 07:23:25;;;;;;;;;;;3.00;99.90;;;;;;5035898;28;19963;-74
2021/12/26 07:25:58;;;;;;;;;;;3.00;99.90;;;;;;5027295;28;19944;-74
2021/12/26 07:28:25;;;;;;;;;;;3.00;99.90;;;;;;5015753;28;19921;-75
2021/12/26 07:31:23;;;;;;;;;;;3.10;99.90;;;;;;5033480;28;20530;-75
2021/12/26 07:34:01;;;;;;;;;;;3.10;99.90;;;;;;5026807;28;19924;-75
2021/12/26 07:36:28;;;;;;;;;;;3.10;99.90;;;;;;5034445;28;19921;-74
2021/12/26 07:39:00;;;;;;;;;;;3.10;99.90;;;;;;5014979;28;19971;-76
2021/12/26 07:41:33;;;;;;;;;;;3.10;99.90;;;;;;5040269;28;19951;-76
2021/12/26 07:44:00;;;;;;;;;;;3.10;99.90;;;;;;5040152;28;19962;-76
2021/12/26 07:46:45;;;;;;;;;;;3.10;99.90;;;;;;5055769;28;20014;-76
2021/12/26 07:49:19;;;;;;;;;;;3.10;99.90;;;;;;5036713;28;19974;-75
2021/12/26 07:52:17;;;;;;;;;;;3.10;99.90;;;;;;5036180;28;19932;-76
2021/12/26 07:55:03;;;;;;;;;;;3.10;99.90;;;;;;5036650;28;20293;-76
2021/12/26 07:57:48;;;;;;;;;;;3.10;99.90;;;;;;5043556;28;19928;-76
2021/12/26 08:00:35;;;;;;;;;;;3.10;99.90;;;;;;5043753;28;20455;-76
2021/12/26 08:03:13;;;;;;;;;;;3.10;99.90;;;;;;5032667;28;19921;-75
2021/12/26 08:05:59;;;;;;;;;;;3.20;99.90;;;;;;5035229;28;19928;-75
2021/12/26 08:08:40;;;;;;;;;;;3.20;99.90;;;;;;5008475;28;19924;-75
2021/12/26 08:11:06;;;;;;;;;;;3.20;99.90;;;;;;5025432;28;20689;-75
2021/12/26 08:13:33;;;;;;;;;;;3.20;99.90;;;;;;5032542;28;20016;-75
2021/12/26 08:16:00;;;;;;;;;;;3.10;99.90;;;;;;5012888;28;19947;-75
2021/12/26 08:18:26;;;;;;;;;;;3.20;99.90;;;;;;5026663;28;20490;-75
2021/12/26 08:20:54;;;;;;;;;;;3.20;99.90;;;;;;5026119;28;20332;-75
2021/12/26 08:23:27;;;;;;;;;;;3.20;99.90;;;;;;5033428;28;19927;-75
2021/12/26 08:25:55;;;;;;;;;;;3.20;99.90;;;;;;5038728;28;20007;-76
2021/12/26 08:28:23;;;;;;;;;;;3.20;99.90;;;;;;5015012;28;20015;-76
2021/12/26 08:30:55;;;;;;;;;;;3.20;99.90;;;;;;5030981;28;19967;-75
2021/12/26 08:33:21;;;;;;;;;;;3.20;99.90;;;;;;5032830;28;20024;-75
2021/12/26 08:35:53;;;;;;;;;;;3.20;99.90;;;;;;5017498;28;19921;-76
2021/12/26 08:38:21;;;;;;;;;;;3.20;99.90;;;;;;5032972;28;19979;-76
2021/12/26 08:40:53;;;;;;;;;;;3.20;99.90;;;;;;5032795;28;19956;-76
2021/12/26 08:43:25;;;;;;;;;;;3.20;99.90;;;;;;5049451;28;19940;-75
2021/12/26 08:45:52;;;;;;;;;;;3.20;99.90;;;;;;5026714;28;20016;-73
2021/12/26 08:48:24;;;;;;;;;;;3.20;99.90;;;;;;5023687;28;19920;-75
2021/12/26 08:50:55;;;;;;;;;;;3.20;99.90;;;;;;5017003;28;20598;-75
2021/12/26 08:53:27;;;;;;;;;;;3.20;99.90;;;;;;5030378;28;19920;-75
2021/12/26 08:56:00;;;;;;;;;;;3.20;99.90;;;;;;5032692;28;19927;-75
2021/12/26 08:58:32;;;;;;;;;;;3.20;99.90;;;;;;5048990;28;20027;-75
2021/12/26 09:00:59;;;;;;;;;;;3.20;99.90;;;;;;5047007;28;19960;-75
2021/12/26 09:03:30;;;;;;;;;;;3.20;99.90;;;;;;5013750;28;19924;-75
2021/12/26 09:05:57;;;;;;;;;;;3.20;99.90;;;;;;5028723;28;19978;-75
2021/12/26 09:08:24;;;;;;;;;;;3.20;99.90;;;;;;5047953;28;19931;-75
2021/12/26 09:10:55;;;;;;;;;;;3.30;99.90;;;;;;5031850;28;19927;-75
2021/12/26 09:13:27;;;;;;;;;;;3.30;99.90;;;;;;5022572;28;19942;-75
2021/12/26 09:15:54;;;;;;;;;;;3.30;99.90;;;;;;5031131;28;19921;-76
2021/12/26 09:18:26;;;;;;;;;;;3.30;99.90;;;;;;5042860;28;19952;-75
2021/12/26 09:20:52;;;;;;;;;;;3.30;99.90;;;;;;5037381;28;20362;-75
2021/12/26 09:23:20;;;;;;;;;;;3.30;99.90;;;;;;5049653;28;20026;-75
2021/12/26 09:25:47;;;;;;;;;;;3.30;99.90;;;;;;5036624;28;20024;-76
2021/12/26 09:28:14;;;;;;;;;;;3.30;99.90;;;;;;5052207;28;19921;-75
2021/12/26 09:30:40;;;;;;;;;;;3.30;99.90;;;;;;5036128;28;20019;-75
2021/12/26 09:33:13;;;;;;;;;;;3.40;99.90;;;;;;5021880;28;19931;-75
2021/12/26 09:35:40;;;;;;;;;;;3.40;99.90;;;;;;5020965;28;19920;-75
2021/12/26 09:38:06;;;;;;;;;;;3.40;99.90;;;;;;5017216;28;19920;-75
2021/12/26 09:40:38;;;;;;;;;;;3.50;99.90;;;;;;5033101;28;20404;-75
2021/12/26 09:43:10;;;;;;;;;;;3.50;99.90;;;;;;5047377;28;20046;-75
2021/12/26 09:45:41;;;;;;;;;;;3.50;99.90;;;;;;5045524;28;19921;-75
2021/12/26 09:48:13;;;;;;;;;;;3.60;99.90;;;;;;5036339;28;19963;-75
2021/12/26 09:50:40;;;;;;;;;;;3.60;99.90;;;;;;5036035;28;19924;-75
2021/12/26 09:53:12;;;;;;;;;;;3.70;99.90;;;;;;5071572;28;19926;-74
2021/12/26 09:55:40;;;;;;;;;;;3.70;99.90;;;;;;5047522;28;19920;-75
2021/12/26 09:58:07;;;;;;;;;;;3.80;99.90;;;;;;5030513;28;20020;-75
2021/12/26 10:00:40;;;;;;;;;;;3.90;99.90;;;;;;5048275;28;19920;-75
2021/12/26 10:03:14;;;;;;;;;;;3.90;99.90;;;;;;5034134;28;20575;-75
2021/12/26 10:05:59;;;;;;;;;;;4.00;99.90;;;;;;5053433;28;20453;-75
2021/12/26 10:08:26;;;;;;;;;;;4.00;99.90;;;;;;5036556;28;20018;-75
2021/12/26 10:11:04;;;;;;;;;;;3.90;99.90;;;;;;5038264;28;19927;-75
2021/12/26 10:14:03;;;;;;;;;;;4.00;99.90;;;;;;5036397;28;20295;-75
2021/12/26 10:16:31;;;;;;;;;;;4.00;99.90;;;;;;4977628;28;20016;-75
2021/12/26 10:18:59;;;;;;;;;;;4.10;99.90;;;;;;5048673;28;19927;-74
2021/12/26 10:21:40;;;;;;;;;;;4.10;99.90;;;;;;5025988;28;19920;-74
2021/12/26 10:24:14;;;;;;;;;;;4.20;99.90;;;;;;5032884;28;19921;-74
2021/12/26 10:26:48;;;;;;;;;;;4.20;99.90;;;;;;5034607;28;19927;-75
2021/12/26 10:29:24;;;;;;;;;;;4.20;99.90;;;;;;5032813;28;20304;-75
2021/12/26 10:31:56;;;;;;;;;;;4.30;99.90;;;;;;5049769;28;20285;-75
2021/12/26 10:34:42;;;;;;;;;;;4.30;99.90;;;;;;5036609;28;19927;-75
2021/12/26 10:37:12;;;;;;;;;;;4.30;99.90;;;;;;5036350;28;20393;-75
2021/12/26 10:39:45;;;;;;;;;;;4.30;99.90;;;;;;5004909;28;19928;-75
2021/12/26 10:42:19;;;;;;;;;;;4.30;99.90;;;;;;5020326;28;19925;-75
2021/12/26 10:44:51;;;;;;;;;;;4.40;99.90;;;;;;5053956;28;20367;-75
2021/12/26 10:47:19;;;;;;;;;;;4.40;99.90;;;;;;5036084;28;19931;-75
2021/12/26 10:50:06;;;;;;;;;;;4.40;99.90;;;;;;5036523;28;19921;-75
2021/12/26 10:52:55;;;;;;;;;;;4.40;99.90;;;;;;5053585;28;20403;-75
2021/12/26 10:55:30;;;;;;;;;;;4.50;99.90;;;;;;5019810;28;19927;-75
2021/12/26 10:58:12;;;;;;;;;;;4.50;99.90;;;;;;5035945;28;19921;-75
2021/12/26 11:00:45;;;;;;;;;;;4.60;99.90;;;;;;5036896;28;20419;-75
2021/12/26 11:03:23;;;;;;;;;;;4.60;99.90;;;;;;5036488;28;19927;-75
2021/12/26 11:05:59;;;;;;;;;;;4.60;99.90;;;;;;5020176;28;19921;-75
2021/12/26 11:08:29;;;;;;;;;;;4.70;99.90;;;;;;5035903;28;20303;-75
2021/12/26 11:11:08;;;;;;;;;;;4.70;99.90;;;;;;5053445;28;19921;-75
2021/12/26 11:13:40;;;;;;;;;;;4.70;99.90;;;;;;5051906;28;19921;-75
2021/12/26 11:16:13;;;;;;;;;;;4.70;99.90;;;;;;5019936;28;19927;-75
2021/12/26 11:18:40;;;;;;;;;;;4.80;99.90;;;;;;5035660;28;20374;-74
2021/12/26 11:21:13;;;;;;;;;;;4.80;99.90;;;;;;5053416;28;19930;-74
2021/12/26 11:23:45;;;;;;;;;;;4.80;99.90;;;;;;5053075;28;19931;-75
2021/12/26 11:26:18;;;;;;;;;;;4.80;99.90;;;;;;5053423;28;19955;-75
2021/12/26 11:28:46;;;;;;;;;;;4.80;99.90;;;;;;5019019;28;19927;-75
2021/12/26 11:31:28;;;;;;;;;;;4.80;99.90;;;;;;5035551;28;19940;-75
2021/12/26 11:34:01;;;;;;;;;;;4.90;99.90;;;;;;5035039;28;19927;-75
2021/12/26 11:36:29;;;;;;;;;;;4.90;99.90;;;;;;5019117;28;19967;-75
2021/12/26 11:39:17;;;;;;;;;;;4.90;99.90;;;;;;5035201;28;19925;-75
2021/12/26 11:42:21;;;;;;;;;;;5.00;99.90;;;;;;5052827;28;19935;-75
2021/12/26 11:45:17;;;;;;;;;;;5.00;99.90;;;;;;5053274;28;19928;-75
2021/12/26 11:48:27;;;;;;;;;;;5.00;99.90;;;;;;5053090;28;19987;-75
2021/12/26 11:51:20;;;;;;;;;;;5.00;99.90;;;;;;5053159;28;20021;-75
2021/12/26 11:54:07;;;;;;;;;;;5.10;99.90;;;;;;5051737;28;19920;-75
2021/12/26 11:57:00;;;;;;;;;;;5.10;99.90;;;;;;5051438;28;19920;-75
2021/12/26 11:59:56;;;;;;;;;;;5.10;99.90;;;;;;5034781;28;20468;-75
2021/12/26 12:02:42;;;;;;;;;;;5.20;99.90;;;;;;5052095;28;19921;-75
2021/12/26 12:05:11;;;;;;;;;;;5.20;99.90;;;;;;5034904;28;20007;-75
2021/12/26 12:07:45;;;;;;;;;;;5.30;99.90;;;;;;5034589;28;20376;-75
2021/12/26 12:10:29;;;;;;;;;;;5.30;99.90;;;;;;5034735;28;20340;-75
2021/12/26 12:13:01;;;;;;;;;;;5.20;99.90;;;;;;5050820;28;20015;-75
2021/12/26 12:15:43;;;;;;;;;;;5.20;99.90;;;;;;5034965;28;20017;-75
2021/12/26 12:18:18;;;;;;;;;;;5.30;99.90;;;;;;5018055;28;19921;-75
2021/12/26 12:21:09;;;;;;;;;;;5.30;99.90;;;;;;5035406;28;19967;-75
2021/12/26 12:23:39;;;;;;;;;;;5.30;99.90;;;;;;5034196;28;19921;-75
2021/12/26 12:26:06;;;;;;;;;;;5.30;99.90;;;;;;5034170;28;19921;-75
2021/12/26 12:28:40;;;;;;;;;;;5.30;99.90;;;;;;5017948;28;19925;-75
2021/12/26 12:31:07;;;;;;;;;;;5.40;99.90;;;;;;5052212;28;19966;-75
2021/12/26 12:33:34;;;;;;;;;;;5.30;99.90;;;;;;5033890;28;19920;-75
2021/12/26 12:36:10;;;;;;;;;;;5.40;99.90;;;;;;5034556;28;20190;-75
2021/12/26 12:38:42;;;;;;;;;;;5.30;99.90;;;;;;5033991;28;19921;-75
2021/12/26 12:41:27;;;;;;;;;;;5.30;99.90;;;;;;5034124;28;19921;-75
2021/12/26 12:44:01;;;;;;;;;;;5.30;99.90;;;;;;5033960;28;19920;-75
2021/12/26 12:46:52;;;;;;;;;;;5.40;99.90;;;;;;5018148;28;20351;-75
2021/12/26 12:49:20;;;;;;;;;;;5.40;99.90;;;;;;5034074;28;20446;-75
2021/12/26 12:51:52;;;;;;;;;;;5.40;99.90;;;;;;5034230;28;19931;-75
2021/12/26 12:54:31;;;;;;;;;;;5.50;99.90;;;;;;5033268;28;20023;-74
2021/12/26 12:56:59;;;;;;;;;;;5.40;99.90;;;;;;5034331;28;19921;-75
2021/12/26 12:59:35;;;;;;;;;;;5.40;99.90;;;;;;5033975;28;20054;-75
2021/12/26 13:02:08;;;;;;;;;;;5.50;99.90;;;;;;5033152;28;20354;-75
2021/12/26 13:04:46;;;;;;;;;;;5.50;99.90;;;;;;5027111;28;20011;-75
2021/12/26 13:07:21;;;;;;;;;;;5.50;99.90;;;;;;5040433;28;19929;-75
2021/12/26 13:09:53;;;;;;;;;;;5.60;99.90;;;;;;5048863;28;20435;-75
2021/12/26 13:12:21;;;;;;;;;;;5.70;99.90;;;;;;5033789;28;19955;-75
2021/12/26 13:15:00;;;;;;;;;;;5.70;99.90;;;;;;5049743;28;19978;-75
2021/12/26 13:17:30;;;;;;;;;;;5.70;99.90;;;;;;5033690;28;19921;-75
2021/12/26 13:20:04;;;;;;;;;;;5.70;99.90;;;;;;5033776;28;20019;-75
2021/12/26 13:22:46;;;;;;;;;;;5.80;99.90;;;;;;5016981;28;20377;-76
2021/12/26 13:25:23;;;;;;;;;;;5.80;99.90;;;;;;5051991;28;20304;-75
2021/12/26 13:27:55;;;;;;;;;;;5.90;99.90;;;;;;5034623;28;19943;-75
2021/12/26 13:30:23;;;;;;;;;;;5.80;99.90;;;;;;5051595;28;19924;-75
2021/12/26 13:32:50;;;;;;;;;;;5.80;99.90;;;;;;5033124;28;20343;-75
2021/12/26 13:35:16;;;;;;;;;;;5.80;99.90;;;;;;5017356;28;19974;-75
2021/12/26 13:37:49;;;;;;;;;;;5.80;99.90;;;;;;5034387;28;19974;-75
2021/12/26 13:40:23;;;;;;;;;;;5.80;99.90;;;;;;5017836;28;19921;-75
2021/12/26 13:42:55;;;;;;;;;;;5.80;99.90;;;;;;5017333;28;19920;-75
2021/12/26 13:45:30;;;;;;;;;;;5.80;99.90;;;;;;5034041;28;20011;-75
2021/12/26 13:47:58;;;;;;;;;;;5.80;99.90;;;;;;5033832;28;19962;-75
2021/12/26 13:50:24;;;;;;;;;;;5.80;99.90;;;;;;5033473;28;19921;-75
2021/12/26 13:53:02;;;;;;;;;;;5.70;99.90;;;;;;5033385;28;19928;-75
2021/12/26 13:55:31;;;;;;;;;;;5.80;99.90;;;;;;5033497;28;20007;-75
2021/12/26 13:58:05;;;;;;;;;;;5.70;99.90;;;;;;5034318;28;19924;-75
2021/12/26 14:00:48;;;;;;;;;;;5.80;99.90;;;;;;5033506;28;19921;-75
2021/12/26 14:03:20;;;;;;;;;;;5.80;99.90;;;;;;5033093;28;19927;-75
2021/12/26 14:05:52;;;;;;;;;;;5.80;99.90;;;;;;5052700;28;19921;-75
2021/12/26 14:08:27;;;;;;;;;;;5.80;99.90;;;;;;5054853;28;19921;-75
2021/12/26 14:11:09;;;;;;;;;;;5.80;99.90;;;;;;5021452;28;20385;-76
2021/12/26 14:13:49;;;;;;;;;;;5.80;99.90;;;;;;5020188;28;19975;-75
2021/12/26 14:16:27;;;;;;;;;;;5.80;99.90;;;;;;5037816;28;20228;-75
2021/12/26 14:18:54;;;;;;;;;;;5.70;99.90;;;;;;5036868;28;20012;-75
2021/12/26 14:21:21;;;;;;;;;;;5.70;99.90;;;;;;5054735;28;20015;-75
2021/12/26 14:23:51;;;;;;;;;;;5.70;99.90;;;;;;5035973;28;20020;-76
2021/12/26 14:26:19;;;;;;;;;;;5.70;99.90;;;;;;5036620;28;19925;-75
2021/12/26 14:28:48;;;;;;;;;;;5.70;99.90;;;;;;5036495;28;19933;-75
2021/12/26 14:31:34;;;;;;;;;;;5.60;99.90;;;;;;5036530;28;20312;-75
2021/12/26 14:34:03;;;;;;;;;;;5.70;99.90;;;;;;5036153;28;20377;-75
2021/12/26 14:36:49;;;;;;;;;;;5.60;99.90;;;;;;5037012;28;19921;-76
2021/12/26 14:39:16;;;;;;;;;;;5.60;99.90;;;;;;5020110;28;19921;-75
2021/12/26 14:41:46;;;;;;;;;;;5.60;99.90;;;;;;5036472;28;20406;-75
2021/12/26 14:44:18;;;;;;;;;;;5.50;99.90;;;;;;5036023;28;19927;-75
2021/12/26 14:46:53;;;;;;;;;;;5.50;99.90;;;;;;5020603;28;20288;-75
2021/12/26 14:49:26;;;;;;;;;;;5.50;99.90;;;;;;5036218;28;19971;-75
2021/12/26 14:52:05;;;;;;;;;;;5.50;99.90;;;;;;5036274;28;19974;-75
2021/12/26 14:54:36;;;;;;;;;;;5.50;99.90;;;;;;5020076;28;19970;-75
2021/12/26 14:57:09;;;;;;;;;;;5.50;99.90;;;;;;5036096;28;19924;-75
2021/12/26 14:59:37;;;;;;;;;;;5.50;99.90;;;;;;5036348;28;19925;-75
2021/12/26 15:02:13;;;;;;;;;;;5.50;99.90;;;;;;5036075;28;20007;-75
2021/12/26 15:04:45;;;;;;;;;;;5.50;99.90;;;;;;5053648;28;20373;-75
2021/12/26 15:07:14;;;;;;;;;;;5.50;99.90;;;;;;5019254;28;20019;-75
2021/12/26 15:09:41;;;;;;;;;;;5.50;99.90;;;;;;5035845;28;19982;-75
2021/12/26 15:12:20;;;;;;;;;;;5.50;99.90;;;;;;5035674;28;19921;-75
2021/12/26 15:14:48;;;;;;;;;;;5.50;99.90;;;;;;5035672;28;20011;-75